createdAt,value
2023-01-17T00:02:09.563Z,93972.59
2023-01-17T00:04:54.895Z,93943.94
2023-01-17T00:07:41.642Z,93974.47
2023-01-17T00:10:12.180Z,93971.69
2023-01-17T00:12:46.487Z,93973.59
2023-01-17T00:15:14.235Z,93964.19
2023-01-17T00:17:42.000Z,93965.31
2023-01-17T00:20:31.611Z,93954.75
2023-01-17T00:23:16.915Z,93954.91
2023-01-17T00:26:02.368Z,93967.03
2023-01-17T00:28:32.654Z,93969.75
2023-01-17T00:30:59.419Z,93959.25
2023-01-17T00:33:26.112Z,93967.63
2023-01-17T00:35:54.001Z,93961.34
2023-01-17T00:38:22.934Z,93963.88
2023-01-17T00:40:50.311Z,93963.88
2023-01-17T00:43:37.123Z,93961.78
2023-01-17T00:46:24.615Z,93960.34
2023-01-17T00:49:10.197Z,93957.16
2023-01-17T00:51:56.463Z,93954.63
2023-01-17T00:54:41.938Z,93949.53
2023-01-17T00:57:27.263Z,93948.53
2023-01-17T01:00:12.648Z,93937.75
2023-01-17T01:02:59.158Z,93958.66
2023-01-17T01:05:44.391Z,93944.13
2023-01-17T01:08:38.392Z,93961.03
2023-01-17T01:11:25.294Z,93938.13
2023-01-17T01:14:10.578Z,93961.88
2023-01-17T01:16:55.988Z,93951.38
2023-01-17T01:19:42.630Z,93955.56
2023-01-17T01:22:27.799Z,93954.97
2023-01-17T01:25:13.267Z,93946.28
2023-01-17T01:27:58.519Z,93947.41
2023-01-17T01:30:43.884Z,93932.84
2023-01-17T01:33:20.685Z,93949.41
2023-01-17T01:35:51.445Z,93955.03
2023-01-17T01:38:19.987Z,93936.34
2023-01-17T01:40:49.375Z,93953.09
2023-01-17T01:43:19.659Z,93942.13
2023-01-17T01:45:53.595Z,93951.75
2023-01-17T01:48:36.325Z,93944.53
2023-01-17T01:51:09.652Z,93962.19
2023-01-17T01:53:41.680Z,93951.94
2023-01-17T01:56:10.814Z,93952.47
2023-01-17T01:58:39.337Z,93951.16
2023-01-17T02:01:09.690Z,93947.22
2023-01-17T02:03:41.257Z,93948.53
2023-01-17T02:06:21.956Z,93947.44
2023-01-17T02:08:50.129Z,93940.06
2023-01-17T02:11:18.100Z,93946.56
2023-01-17T02:13:46.459Z,93937.16
2023-01-17T02:16:27.735Z,93925.84
2023-01-17T02:19:06.971Z,93924.25
2023-01-17T02:21:43.203Z,93924.03
2023-01-17T02:24:54.751Z,93923.91
2023-01-17T02:27:27.226Z,93929.28
2023-01-17T02:30:33.230Z,93927.38
2023-01-17T02:33:11.667Z,93918.63
2023-01-17T02:35:47.429Z,93909.69
2023-01-17T02:38:31.502Z,93921.41
2023-01-17T02:41:05.302Z,93920.34
2023-01-17T02:43:35.107Z,93917.66
2023-01-17T02:46:04.778Z,93923.22
2023-01-17T02:48:35.623Z,93907.91
2023-01-17T02:51:28.258Z,93915.81
2023-01-17T02:54:10.899Z,93919.88
2023-01-17T02:56:50.531Z,93914.84
2023-01-17T02:59:34.913Z,93904.81
2023-01-17T03:02:18.097Z,93907.97
2023-01-17T03:04:51.020Z,93901.59
2023-01-17T03:07:22.647Z,93886.75
2023-01-17T03:09:57.696Z,93895.72
2023-01-17T03:12:28.335Z,93894.44
2023-01-17T03:14:56.082Z,93889.66
2023-01-17T03:17:27.702Z,93884.00
2023-01-17T03:19:55.517Z,93884.56
2023-01-17T03:22:23.285Z,93884.56
2023-01-17T03:24:51.314Z,93882.34
2023-01-17T03:27:19.036Z,93874.81
2023-01-17T03:29:47.042Z,93877.72
2023-01-17T03:32:14.948Z,93886.03
2023-01-17T03:34:44.031Z,93876.47
2023-01-17T03:37:11.923Z,93878.50
2023-01-17T03:39:39.729Z,93869.22
2023-01-17T03:42:07.529Z,93875.91
2023-01-17T03:44:35.366Z,93871.44
2023-01-17T03:47:03.199Z,93867.50
2023-01-17T03:49:31.420Z,93872.09
2023-01-17T03:52:00.539Z,93864.28
2023-01-17T03:54:28.790Z,93855.75
2023-01-17T03:56:56.977Z,93864.88
2023-01-17T03:59:24.750Z,93862.31
2023-01-17T04:01:52.668Z,93857.13
2023-01-17T04:04:20.600Z,93853.56
2023-01-17T04:06:48.350Z,93839.84
2023-01-17T04:09:17.427Z,93851.88
2023-01-17T04:11:45.386Z,93848.75
2023-01-17T04:14:13.220Z,93836.13
2023-01-17T04:16:41.353Z,93837.41
2023-01-17T04:19:10.901Z,93836.22
2023-01-17T04:21:38.633Z,93835.44
2023-01-17T04:24:07.439Z,93824.97
2023-01-17T04:26:37.136Z,93828.22
2023-01-17T04:29:05.107Z,93837.81
2023-01-17T04:31:32.888Z,93822.13
2023-01-17T04:34:00.680Z,93825.00
2023-01-17T04:36:28.552Z,93816.19
2023-01-17T04:38:56.262Z,93800.56
2023-01-17T04:41:24.296Z,93797.63
2023-01-17T04:43:53.552Z,93793.06
2023-01-17T04:46:21.426Z,93796.19
2023-01-17T04:48:49.310Z,93790.31
2023-01-17T04:51:17.125Z,93782.72
2023-01-17T04:53:44.967Z,93786.09
2023-01-17T04:56:12.771Z,93780.75
2023-01-17T04:58:40.617Z,93783.00
2023-01-17T05:01:10.086Z,93787.28
2023-01-17T05:03:38.064Z,93778.22
2023-01-17T05:06:06.028Z,93781.13
2023-01-17T05:08:33.788Z,93776.91
2023-01-17T05:11:01.738Z,93765.84
2023-01-17T05:13:29.506Z,93771.66
2023-01-17T05:15:57.974Z,93763.06
2023-01-17T05:18:27.172Z,93762.50
2023-01-17T05:20:55.070Z,93759.72
2023-01-17T05:23:22.887Z,93754.91
2023-01-17T05:25:50.649Z,93753.31
2023-01-17T05:28:18.445Z,93753.31
2023-01-17T05:30:46.249Z,93742.09
2023-01-17T05:33:14.007Z,93743.28
2023-01-17T05:35:43.084Z,93736.91
2023-01-17T05:38:10.981Z,93736.06
2023-01-17T05:40:38.740Z,93739.00
2023-01-17T05:43:06.568Z,93746.75
2023-01-17T05:45:35.233Z,93732.97
2023-01-17T05:48:03.725Z,93741.03
2023-01-17T05:50:33.895Z,93739.94
2023-01-17T05:53:04.712Z,93748.16
2023-01-17T05:55:34.190Z,93739.53
2023-01-17T05:58:02.272Z,93754.03
2023-01-17T06:00:30.612Z,93750.28
2023-01-17T06:03:00.354Z,93753.94
2023-01-17T06:05:29.247Z,93746.06
2023-01-17T06:07:57.366Z,93738.97
2023-01-17T06:10:28.243Z,93741.22
2023-01-17T06:13:03.122Z,93737.78
2023-01-17T06:15:30.869Z,93733.47
2023-01-17T06:17:58.689Z,93726.63
2023-01-17T06:20:27.372Z,93722.88
2023-01-17T06:22:55.341Z,93719.06
2023-01-17T06:25:23.169Z,93721.47
2023-01-17T06:27:54.755Z,93714.44
2023-01-17T06:30:22.865Z,93711.03
2023-01-17T06:32:54.028Z,93715.97
2023-01-17T06:35:21.830Z,93709.19
2023-01-17T06:37:52.150Z,93703.13
2023-01-17T06:40:20.489Z,93709.03
2023-01-17T06:42:48.673Z,93705.84
2023-01-17T06:45:17.829Z,93697.25
2023-01-17T06:47:46.022Z,93681.31
2023-01-17T06:50:16.136Z,93686.09
2023-01-17T06:52:44.220Z,93681.31
2023-01-17T06:55:12.271Z,93688.72
2023-01-17T06:57:39.991Z,93698.00
2023-01-17T07:00:10.347Z,93689.91
2023-01-17T07:02:39.462Z,93686.00
2023-01-17T07:05:08.615Z,93676.06
2023-01-17T07:07:36.400Z,93673.66
2023-01-17T07:10:05.029Z,93677.41
2023-01-17T07:12:32.837Z,93677.47
2023-01-17T07:15:00.599Z,93674.28
2023-01-17T07:17:28.454Z,93673.88
2023-01-17T07:19:57.637Z,93672.88
2023-01-17T07:22:25.495Z,93673.97
2023-01-17T07:24:53.499Z,93672.88
2023-01-17T07:27:21.205Z,93658.69
2023-01-17T07:29:48.989Z,93660.31
2023-01-17T07:32:17.052Z,93660.22
2023-01-17T07:34:44.801Z,93656.16
2023-01-17T07:37:15.310Z,93657.13
2023-01-17T07:39:43.792Z,93654.25
2023-01-17T07:42:11.604Z,93648.31
2023-01-17T07:44:41.395Z,93648.31
2023-01-17T07:47:09.221Z,93658.38
2023-01-17T07:49:37.032Z,93661.09
2023-01-17T07:52:04.979Z,93664.34
2023-01-17T07:54:34.082Z,93671.50
2023-01-17T07:57:02.048Z,93652.03
2023-01-17T07:59:30.259Z,93650.50
2023-01-17T08:01:58.130Z,93637.50
2023-01-17T08:04:27.241Z,93638.34
2023-01-17T08:06:55.183Z,93638.91
2023-01-17T08:09:23.126Z,93629.28
2023-01-17T08:11:52.584Z,93626.63
2023-01-17T08:14:20.421Z,93599.50
2023-01-17T08:16:48.220Z,93599.13
2023-01-17T08:19:16.816Z,93586.00
2023-01-17T08:21:44.593Z,93585.13
2023-01-17T08:24:14.086Z,93571.47
2023-01-17T08:26:42.064Z,93579.75
2023-01-17T08:29:11.247Z,93581.00
2023-01-17T08:31:39.105Z,93581.00
2023-01-17T08:34:06.961Z,93574.41
2023-01-17T08:36:34.814Z,93580.94
2023-01-17T08:39:02.579Z,93585.13
2023-01-17T08:41:32.171Z,93593.06
2023-01-17T08:43:59.938Z,93592.31
2023-01-17T08:46:32.148Z,93583.50
2023-01-17T08:49:02.745Z,93570.00
2023-01-17T08:51:32.451Z,93562.19
2023-01-17T08:54:00.466Z,93548.75
2023-01-17T08:56:28.401Z,93535.94
2023-01-17T08:58:56.329Z,93535.44
2023-01-17T09:01:24.597Z,93509.66
2023-01-17T09:03:53.925Z,93503.41
2023-01-17T09:06:22.148Z,93485.75
2023-01-17T09:08:52.523Z,93501.34
2023-01-17T09:11:20.300Z,93499.81
2023-01-17T09:13:48.101Z,93496.72
2023-01-17T09:16:15.928Z,93506.16
2023-01-17T09:18:43.683Z,93507.16
2023-01-17T09:21:14.188Z,93506.19
2023-01-17T09:23:42.938Z,93506.72
2023-01-17T09:26:19.406Z,93512.44
2023-01-17T09:28:47.191Z,93517.78
2023-01-17T09:31:17.295Z,93518.28
2023-01-17T09:33:45.843Z,93515.91
2023-01-17T09:36:15.430Z,93506.13
2023-01-17T09:38:43.452Z,93513.50
2023-01-17T09:41:28.065Z,93517.88
2023-01-17T09:44:01.563Z,93496.72
2023-01-17T09:46:33.236Z,93503.06
2023-01-17T09:49:08.571Z,93513.13
2023-01-17T09:51:38.403Z,93503.13
2023-01-17T09:54:06.739Z,93501.53
2023-01-17T09:56:41.281Z,93507.16
2023-01-17T09:59:35.750Z,93514.22
2023-01-17T10:02:17.998Z,93507.16
2023-01-17T10:04:52.367Z,93505.53
2023-01-17T10:07:33.615Z,93509.03
2023-01-17T10:10:17.207Z,93503.28
2023-01-17T10:12:52.176Z,93502.19
2023-01-17T10:15:39.016Z,93488.75
2023-01-17T10:18:31.555Z,93499.88
2023-01-17T10:21:05.612Z,93499.00
2023-01-17T10:23:52.401Z,93486.16
2023-01-17T10:26:27.203Z,93491.69
2023-01-17T10:29:01.401Z,93490.66
2023-01-17T10:31:32.218Z,93482.19
2023-01-17T10:34:08.104Z,93480.88
2023-01-17T10:36:39.443Z,93480.13
2023-01-17T10:39:17.183Z,93470.31
2023-01-17T10:41:48.710Z,93471.06
2023-01-17T10:44:22.019Z,93472.63
2023-01-17T10:46:56.598Z,93460.78
2023-01-17T10:49:27.921Z,93453.66
2023-01-17T10:52:13.409Z,93444.13
2023-01-17T10:54:56.600Z,93438.34
2023-01-17T10:57:25.906Z,93433.59
2023-01-17T10:59:58.889Z,93427.25
2023-01-17T11:02:31.292Z,93417.22
2023-01-17T11:05:05.746Z,93406.94
2023-01-17T11:07:33.630Z,93388.69
2023-01-17T11:10:02.739Z,93399.78
2023-01-17T11:12:33.049Z,93402.41
2023-01-17T11:15:22.752Z,93393.44
2023-01-17T11:17:53.218Z,93389.75
2023-01-17T11:20:29.222Z,93385.50
2023-01-17T11:23:07.904Z,93388.72
2023-01-17T11:25:37.375Z,93384.75
2023-01-17T11:28:08.908Z,93386.59
2023-01-17T11:30:36.686Z,93386.34
2023-01-17T11:33:08.820Z,93381.56
2023-01-17T11:35:38.315Z,93370.47
2023-01-17T11:38:12.759Z,93364.41
2023-01-17T11:40:44.325Z,93362.78
2023-01-17T11:43:26.315Z,93360.16
2023-01-17T11:46:15.524Z,93362.81
2023-01-17T11:48:47.891Z,93364.91
2023-01-17T11:51:21.633Z,93363.59
2023-01-17T11:53:49.914Z,93356.97
2023-01-17T11:56:30.681Z,93342.66
2023-01-17T11:59:27.900Z,93340.59
2023-01-17T12:02:24.479Z,93342.44
2023-01-17T12:05:02.420Z,93335.06
2023-01-17T12:07:39.091Z,93324.19
2023-01-17T12:10:15.635Z,93329.16
2023-01-17T12:13:29.104Z,93313.09
2023-01-17T12:16:32.817Z,93293.50
2023-01-17T12:19:13.207Z,93283.97
2023-01-17T12:21:49.950Z,93270.31
2023-01-17T12:24:35.286Z,93254.13
2023-01-17T12:27:13.351Z,93255.41
2023-01-17T12:29:51.207Z,93270.13
2023-01-17T12:32:38.811Z,93258.56
2023-01-17T12:35:14.308Z,93249.41
2023-01-17T12:37:45.245Z,93244.38
2023-01-17T12:40:20.247Z,93253.13
2023-01-17T12:42:54.655Z,93267.63
2023-01-17T12:45:32.110Z,93281.13
2023-01-17T12:48:06.117Z,93267.97
2023-01-17T12:50:39.775Z,93261.88
2023-01-17T12:53:20.632Z,93263.97
2023-01-17T12:55:56.577Z,93256.06
2023-01-17T12:58:28.906Z,93261.66
2023-01-17T13:01:05.592Z,93249.22
2023-01-17T13:03:47.768Z,93250.53
2023-01-17T13:06:25.988Z,93253.94
2023-01-17T13:08:59.328Z,93250.81
2023-01-17T13:11:33.519Z,93250.00
2023-01-17T13:14:03.356Z,93243.94
2023-01-17T13:16:40.628Z,93247.09
2023-01-17T13:19:19.834Z,93236.53
2023-01-17T13:21:48.930Z,93247.66
2023-01-17T13:24:25.855Z,93247.63
2023-01-17T13:27:30.212Z,93241.03
2023-01-17T13:30:16.429Z,93229.66
2023-01-17T13:33:01.958Z,93239.19
2023-01-17T13:35:41.945Z,93235.56
2023-01-17T13:38:35.529Z,93238.94
2023-01-17T13:41:14.381Z,93255.59
2023-01-17T13:44:04.962Z,93246.63
2023-01-17T13:46:33.431Z,93247.72
2023-01-17T13:49:31.501Z,93245.13
2023-01-17T13:52:09.878Z,93253.53
2023-01-17T13:54:45.807Z,93259.34
2023-01-17T13:57:36.175Z,93258.28
2023-01-17T14:00:50.321Z,93266.72
2023-01-17T14:03:58.405Z,93264.34
2023-01-17T14:06:34.421Z,93257.16
2023-01-17T14:09:06.128Z,93269.56
2023-01-17T14:11:36.188Z,93277.16
2023-01-17T14:14:37.461Z,93285.09
2023-01-17T14:17:28.184Z,93293.56
2023-01-17T14:20:00.289Z,93301.97
2023-01-17T14:22:28.733Z,93320.72
2023-01-17T14:25:05.367Z,93328.28
2023-01-17T14:27:35.245Z,93333.03
2023-01-17T14:30:04.831Z,93339.28
2023-01-17T14:32:36.004Z,93321.38
2023-01-17T14:35:05.415Z,93329.25
2023-01-17T14:37:46.717Z,93307.22
2023-01-17T14:40:19.805Z,93302.47
2023-01-17T14:42:49.035Z,93288.28
2023-01-17T14:45:25.097Z,93311.97
2023-01-17T14:47:53.917Z,93304.63
2023-01-17T14:50:24.729Z,93306.28
2023-01-17T14:53:17.927Z,93312.03
2023-01-17T14:55:58.540Z,93301.75
2023-01-17T14:58:28.487Z,93306.75
2023-01-17T15:00:59.981Z,93309.44
2023-01-17T15:03:28.804Z,93319.19
2023-01-17T15:05:58.908Z,93320.50
2023-01-17T15:08:35.991Z,93314.69
2023-01-17T15:11:08.519Z,93309.94
2023-01-17T15:13:44.862Z,93315.72
2023-01-17T15:16:21.161Z,93313.06
2023-01-17T15:18:49.818Z,93315.66
2023-01-17T15:21:20.395Z,93305.94
2023-01-17T15:23:52.395Z,93315.16
2023-01-17T15:26:23.226Z,93310.97
2023-01-17T15:28:51.535Z,93291.91
2023-01-17T15:31:23.964Z,93305.09
2023-01-17T15:33:56.675Z,93303.16
2023-01-17T15:36:28.884Z,93303.63
2023-01-17T15:39:00.225Z,93294.38
2023-01-17T15:41:32.795Z,93309.72
2023-01-17T15:44:01.344Z,93312.84
2023-01-17T15:46:32.966Z,93299.28
2023-01-17T15:49:17.983Z,93304.63
2023-01-17T15:51:50.264Z,93322.50
2023-01-17T15:54:35.494Z,93319.53
2023-01-17T15:57:21.149Z,93325.25
2023-01-17T15:59:53.706Z,93324.78
2023-01-17T16:02:34.119Z,93306.81
2023-01-17T16:05:05.668Z,93324.03
2023-01-17T16:07:35.643Z,93323.22
2023-01-17T16:10:07.879Z,93328.44
2023-01-17T16:12:37.050Z,93332.88
2023-01-17T16:15:12.945Z,93332.63
2023-01-17T16:17:42.781Z,93319.56
2023-01-17T16:20:15.809Z,93346.31
2023-01-17T16:22:44.355Z,93347.19
2023-01-17T16:25:16.604Z,93357.13
2023-01-17T16:27:45.899Z,93354.81
2023-01-17T16:30:16.254Z,93362.97
2023-01-17T16:32:48.539Z,93357.41
2023-01-17T16:35:20.714Z,93362.19
2023-01-17T16:37:50.645Z,93357.16
2023-01-17T16:40:18.885Z,93366.31
2023-01-17T16:42:48.363Z,93368.66
2023-01-17T16:45:17.361Z,93366.31
2023-01-17T16:47:47.476Z,93371.91
2023-01-17T16:50:18.038Z,93360.69
2023-01-17T16:52:45.863Z,93370.09
2023-01-17T16:55:16.165Z,93368.53
2023-01-17T16:57:44.236Z,93365.63
2023-01-17T17:00:14.606Z,93385.72
2023-01-17T17:02:42.550Z,93385.63
2023-01-17T17:05:11.677Z,93380.09
2023-01-17T17:07:44.148Z,93387.28
2023-01-17T17:10:14.073Z,93384.63
2023-01-17T17:12:42.144Z,93406.50
2023-01-17T17:15:10.674Z,93405.41
2023-01-17T17:17:41.043Z,93406.44
2023-01-17T17:20:11.492Z,93399.38
2023-01-17T17:22:39.457Z,93402.13
2023-01-17T17:25:08.169Z,93400.59
2023-01-17T17:27:36.416Z,93397.66
2023-01-17T17:30:05.412Z,93410.50
2023-01-17T17:32:33.367Z,93415.28
2023-01-17T17:35:02.607Z,93420.00
2023-01-17T17:37:30.551Z,93418.69
2023-01-17T17:39:58.420Z,93421.50
2023-01-17T17:42:26.652Z,93415.28
2023-01-17T17:44:54.373Z,93417.06
2023-01-17T17:47:23.953Z,93423.50
2023-01-17T17:49:51.738Z,93426.19
2023-01-17T17:52:20.974Z,93434.03
2023-01-17T17:54:49.145Z,93439.44
2023-01-17T17:57:17.372Z,93435.38
2023-01-17T17:59:45.130Z,93441.16
2023-01-17T18:02:13.070Z,93432.50
2023-01-17T18:04:40.951Z,93438.59
2023-01-17T18:07:08.705Z,93442.97
2023-01-17T18:09:39.282Z,93423.78
2023-01-17T18:12:07.445Z,93443.44
2023-01-17T18:14:35.478Z,93426.34
2023-01-17T18:17:03.253Z,93446.97
2023-01-17T18:19:31.071Z,93443.28
2023-01-17T18:21:58.939Z,93454.28
2023-01-17T18:24:28.041Z,93433.19
2023-01-17T18:26:58.460Z,93456.19
2023-01-17T18:29:27.522Z,93454.91
2023-01-17T18:31:55.881Z,93463.72
2023-01-17T18:34:26.982Z,93452.66
2023-01-17T18:36:55.065Z,93465.91
2023-01-17T18:39:25.210Z,93464.09
2023-01-17T18:41:53.892Z,93454.00
2023-01-17T18:44:23.396Z,93464.34
2023-01-17T18:46:51.281Z,93468.00
2023-01-17T18:49:20.159Z,93474.28
2023-01-17T18:51:50.729Z,93463.19
2023-01-17T18:54:19.558Z,93465.00
2023-01-17T18:56:47.650Z,93467.59
2023-01-17T18:59:18.263Z,93469.53
2023-01-17T19:01:48.473Z,93458.72
2023-01-17T19:04:17.924Z,93467.50
2023-01-17T19:06:47.835Z,93461.47
2023-01-17T19:09:16.669Z,93466.03
2023-01-17T19:11:45.446Z,93480.81
2023-01-17T19:14:14.490Z,93474.59
2023-01-17T19:16:43.370Z,93474.59
2023-01-17T19:19:15.757Z,93473.91
2023-01-17T19:21:43.769Z,93473.06
2023-01-17T19:24:12.911Z,93478.38
2023-01-17T19:26:40.746Z,93483.31
2023-01-17T19:29:08.574Z,93481.22
2023-01-17T19:31:42.510Z,93474.03
2023-01-17T19:34:13.760Z,93480.22
2023-01-17T19:36:41.948Z,93492.16
2023-01-17T19:39:10.650Z,93490.09
2023-01-17T19:41:42.238Z,93485.56
2023-01-17T19:44:11.870Z,93490.81
2023-01-17T19:46:40.028Z,93482.34
2023-01-17T19:49:09.993Z,93499.72
2023-01-17T19:51:39.653Z,93498.06
2023-01-17T19:54:08.380Z,93498.75
2023-01-17T19:56:36.755Z,93498.22
2023-01-17T19:59:04.715Z,93489.00
2023-01-17T20:01:34.336Z,93501.63
2023-01-17T20:04:03.576Z,93499.06
2023-01-17T20:06:35.365Z,93500.09
2023-01-17T20:09:06.076Z,93497.78
2023-01-17T20:11:34.192Z,93492.81
2023-01-17T20:14:02.666Z,93493.06
2023-01-17T20:16:32.970Z,93510.50
2023-01-17T20:19:02.558Z,93528.06
2023-01-17T20:21:31.945Z,93529.47
2023-01-17T20:24:03.290Z,93529.69
2023-01-17T20:26:35.684Z,93527.19
2023-01-17T20:29:06.868Z,93515.50
2023-01-17T20:31:38.197Z,93520.81
2023-01-17T20:34:06.819Z,93517.34
2023-01-17T20:36:34.690Z,93524.25
2023-01-17T20:39:05.055Z,93523.31
2023-01-17T20:41:35.450Z,93519.63
2023-01-17T20:44:05.974Z,93517.53
2023-01-17T20:46:36.876Z,93515.47
2023-01-17T20:49:07.910Z,93508.94
2023-01-17T20:51:38.352Z,93509.47
2023-01-17T20:54:06.971Z,93507.41
2023-01-17T20:56:37.598Z,93509.28
2023-01-17T20:59:07.621Z,93497.91
2023-01-17T21:01:36.030Z,93497.34
2023-01-17T21:04:04.507Z,93499.63
2023-01-17T21:06:32.493Z,93507.81
2023-01-17T21:09:00.868Z,93484.78
2023-01-17T21:11:28.754Z,93488.94
2023-01-17T21:13:58.398Z,93481.00
2023-01-17T21:16:27.941Z,93491.00
2023-01-17T21:18:55.937Z,93489.72
2023-01-17T21:21:26.136Z,93491.25
2023-01-17T21:23:55.477Z,93490.28
2023-01-17T21:26:25.656Z,93505.06
2023-01-17T21:28:54.137Z,93497.13
2023-01-17T21:31:25.881Z,93497.81
2023-01-17T21:33:55.609Z,93501.59
2023-01-17T21:36:26.059Z,93490.22
2023-01-17T21:38:56.943Z,93509.72
2023-01-17T21:41:26.940Z,93515.16
2023-01-17T21:43:55.945Z,93523.31
2023-01-17T21:46:25.611Z,93513.94
2023-01-17T21:48:53.923Z,93527.25
2023-01-17T21:51:21.823Z,93525.41
2023-01-17T21:53:49.898Z,93523.50
2023-01-17T21:56:34.864Z,93527.03
2023-01-17T21:59:02.643Z,93537.38
2023-01-17T22:01:34.267Z,93537.88
2023-01-17T22:04:04.120Z,93535.88
2023-01-17T22:06:34.267Z,93539.19
2023-01-17T22:09:02.263Z,93539.47
2023-01-17T22:11:31.056Z,93540.53
2023-01-17T22:13:59.444Z,93531.00
2023-01-17T22:16:27.635Z,93540.84
2023-01-17T22:18:57.079Z,93508.09
2023-01-17T22:21:28.184Z,93536.56
2023-01-17T22:23:58.307Z,93540.72
2023-01-17T22:26:27.854Z,93536.41
2023-01-17T22:28:56.496Z,93559.50
2023-01-17T22:31:26.933Z,93558.25
2023-01-17T22:33:58.559Z,93557.44
2023-01-17T22:36:26.916Z,93559.50
2023-01-17T22:38:55.542Z,93568.44
2023-01-17T22:41:25.206Z,93559.06
2023-01-17T22:43:56.438Z,93563.34
2023-01-17T22:46:27.581Z,93568.41
2023-01-17T22:48:57.690Z,93559.50
2023-01-17T22:51:27.087Z,93563.00
2023-01-17T22:53:56.985Z,93557.34
2023-01-17T22:56:26.490Z,93561.81
2023-01-17T22:58:54.645Z,93551.09
2023-01-17T23:01:24.409Z,93562.28
2023-01-17T23:03:54.170Z,93537.75
2023-01-17T23:06:25.982Z,93562.84
2023-01-17T23:08:55.822Z,93558.78
2023-01-17T23:11:42.597Z,93561.75
2023-01-17T23:14:13.851Z,93558.34
2023-01-17T23:17:01.424Z,93565.06
2023-01-17T23:19:31.450Z,93569.13
2023-01-17T23:22:19.296Z,93552.13
2023-01-17T23:24:50.220Z,93573.84
2023-01-17T23:27:37.259Z,93556.34
2023-01-17T23:30:07.233Z,93557.63
2023-01-17T23:32:35.128Z,93563.19
2023-01-17T23:35:02.940Z,93558.75
2023-01-17T23:37:46.256Z,93545.19
2023-01-17T23:40:14.387Z,93560.31
2023-01-17T23:42:59.757Z,93565.41
2023-01-17T23:45:28.061Z,93574.56
2023-01-17T23:47:56.112Z,93581.16
2023-01-17T23:50:24.227Z,93571.88
2023-01-17T23:52:53.391Z,93577.19
2023-01-17T23:55:21.106Z,93581.25
2023-01-17T23:57:50.145Z,93585.78
